Terminal Aerodrome Forecast
Issued by NWS

Home | Current Version | Previous Version | Text Only | Print | Product List | Glossary On
Versions: 1 2 3 4 5 6 7 8 9 10 11 12 13 14 15 16 17 18 19 20
691
FTUS46 KMTR 261512 AAA
TAFOAK
TAF AMD
KOAK 261512Z 2615/2718 20008KT P6SM OVC012
     FM261630 25008KT P6SM FEW016
     FM262100 27013G20KT P6SM FEW018
     FM270400 29010KT P6SM OVC012
     FM271600 VRB03KT P6SM SCT015=

USA.gov is the U.S. government's official web portal to all federal, state and local government web resources and services.